createdAt,value
2019-06-26T00:04:17.746Z,51.50
2019-06-26T00:17:40.647Z,51.50
2019-06-26T00:31:03.398Z,51.50
2019-06-26T00:44:26.309Z,51.50
2019-06-26T00:57:49.092Z,51.50
2019-06-26T01:11:11.928Z,51.50
2019-06-26T01:24:34.628Z,51.50
2019-06-26T01:37:57.465Z,51.50
2019-06-26T02:04:21.997Z,51.60
2019-06-26T02:17:29.197Z,51.50
2019-06-26T02:30:36.341Z,51.50
2019-06-26T02:43:43.493Z,51.50
2019-06-26T02:56:50.804Z,51.50
2019-06-26T03:09:57.989Z,51.50
2019-06-26T03:23:21.887Z,51.60
2019-06-26T03:36:44.470Z,51.60
2019-06-26T03:50:07.274Z,51.50
2019-06-26T04:03:30.315Z,51.80
2019-06-26T04:16:53.006Z,51.90
2019-06-26T04:30:15.753Z,51.90
2019-06-26T04:43:38.598Z,51.90
2019-06-26T04:57:01.486Z,52.00
2019-06-26T05:10:24.284Z,52.00
2019-06-26T05:49:54.983Z,52.10
2019-06-26T06:03:02.266Z,52.10
2019-06-26T06:16:09.627Z,52.20
2019-06-26T06:29:16.756Z,53.00
2019-06-26T06:42:24.043Z,52.50
2019-06-26T06:55:31.161Z,52.40
2019-06-26T07:08:54.944Z,52.30
2019-06-26T07:22:18.696Z,52.30
2019-06-26T07:35:40.600Z,52.30
2019-06-26T07:49:03.280Z,52.80
2019-06-26T08:15:27.684Z,53.90
2019-06-26T08:28:34.880Z,54.30
2019-06-26T08:41:42.080Z,55.30
2019-06-26T08:54:49.379Z,56.80
2019-06-26T09:07:56.546Z,56.50
2019-06-26T09:21:03.772Z,54.90
2019-06-26T09:34:27.576Z,54.40
2019-06-26T09:47:50.524Z,53.90
2019-06-26T10:01:13.257Z,53.60
2019-06-26T10:14:46.469Z,53.50
2019-06-26T10:27:58.885Z,53.40
2019-06-26T10:41:21.758Z,53.30
2019-06-26T10:54:44.778Z,53.20
2019-06-26T11:21:09.176Z,53.00
2019-06-26T11:34:16.503Z,53.00
2019-06-26T11:47:24.837Z,53.00
2019-06-26T12:00:32.242Z,53.00
2019-06-26T12:13:55.790Z,53.00
2019-06-26T12:27:18.852Z,53.00
2019-06-26T12:40:41.512Z,53.00
2019-06-26T12:54:04.270Z,52.90
2019-06-26T13:07:27.210Z,52.90
2019-06-26T13:20:52.592Z,53.00
2019-06-26T13:34:12.766Z,53.00
2019-06-26T14:13:43.745Z,53.00
2019-06-26T14:39:57.965Z,52.90
2019-06-26T14:53:05.251Z,52.90
2019-06-26T15:06:16.295Z,52.80
2019-06-26T15:19:37.043Z,52.80
2019-06-26T15:32:59.802Z,52.80
2019-06-26T15:46:22.546Z,52.80
2019-06-26T15:59:45.925Z,52.90
2019-06-26T16:13:08.271Z,52.90
2019-06-26T16:26:31.004Z,52.90
2019-06-26T16:39:53.823Z,52.90
2019-06-26T16:53:16.898Z,52.90
2019-06-26T17:06:39.564Z,52.90
2019-06-26T17:20:02.308Z,52.90
2019-06-26T17:33:25.087Z,52.90
2019-06-26T17:46:47.914Z,52.90
2019-06-26T18:00:10.707Z,52.90
2019-06-26T18:13:33.508Z,52.80
2019-06-26T18:26:56.658Z,52.80
2019-06-26T18:40:19.269Z,52.80
2019-06-26T18:53:52.698Z,53.50
2019-06-26T19:07:04.860Z,53.00
2019-06-26T19:20:27.612Z,52.40
2019-06-26T19:33:50.539Z,51.60
2019-06-26T19:47:13.337Z,51.40
2019-06-26T20:00:36.101Z,51.10
2019-06-26T20:13:58.854Z,50.80
2019-06-26T20:27:21.831Z,50.40
2019-06-26T20:40:46.064Z,50.20
2019-06-26T20:54:07.411Z,50.30
2019-06-26T21:07:30.235Z,49.90
2019-06-26T21:20:53.069Z,50.00
2019-06-26T21:34:15.784Z,49.70
2019-06-26T21:47:38.547Z,49.50
2019-06-26T22:01:01.403Z,49.50
2019-06-26T22:14:24.150Z,49.40
2019-06-26T22:27:46.999Z,49.10
2019-06-26T22:41:09.872Z,48.80
2019-06-26T22:54:32.633Z,48.60
2019-06-26T23:07:55.449Z,48.30
2019-06-26T23:48:20.296Z,47.60
